Time;durP1;ratioP1;P1;durP2;ratioP2;P2;SDS_P1;SDS_P2;PMS_P1;PMS_P2;Temp;Humidity;BMP_temperature;BMP_pressure;BME280_temperature;BME280_humidity;BME280_pressure;Samples;Min_cycle;Max_cycle;Signal;HPM_P1;HPM_P2
2022/06/01 00:01:00;;;;;;;2.10;1.90;;;;;;;;;;7395125;19;20128;-80
2022/06/01 00:03:29;;;;;;;1.97;1.70;;;;;;;;;;7390694;19;20395;-80
2022/06/01 00:05:55;;;;;;;2.70;1.80;;;;;;;;;;7390761;19;20152;-80
2022/06/01 00:08:22;;;;;;;2.57;2.03;;;;;;;;;;7389457;19;20172;-79
2022/06/01 00:10:48;;;;;;;2.13;2.03;;;;;;;;;;7387322;19;20144;-79
2022/06/01 00:13:14;;;;;;;2.50;2.00;;;;;;;;;;7389630;19;20133;-82
2022/06/01 00:15:40;;;;;;;2.20;2.00;;;;;;;;;;7388472;19;20192;-78
2022/06/01 00:18:06;;;;;;;2.30;1.93;;;;;;;;;;7390382;19;20201;-79
2022/06/01 00:20:32;;;;;;;2.13;1.90;;;;;;;;;;7389189;19;20140;-80
2022/06/01 00:22:58;;;;;;;2.37;1.90;;;;;;;;;;7386658;19;20141;-79
2022/06/01 00:25:24;;;;;;;2.27;2.07;;;;;;;;;;7388736;19;20168;-80
2022/06/01 00:27:51;;;;;;;2.10;1.90;;;;;;;;;;7389976;19;20238;-79
2022/06/01 00:30:17;;;;;;;1.97;1.80;;;;;;;;;;7388604;19;20230;-78
2022/06/01 00:32:43;;;;;;;2.10;1.90;;;;;;;;;;7391501;19;20140;-80
2022/06/01 00:35:15;;;;;;;2.10;1.90;;;;;;;;;;7388648;19;20169;-81
2022/06/01 00:37:41;;;;;;;2.47;2.27;;;;;;;;;;7391325;19;20129;-79
2022/06/01 00:40:09;;;;;;;2.43;1.97;;;;;;;;;;7385703;19;20157;-81
2022/06/01 00:42:36;;;;;;;2.90;2.17;;;;;;;;;;7387863;19;20140;-78
2022/06/01 00:45:02;;;;;;;2.53;1.70;;;;;;;;;;7382788;19;20168;-79
2022/06/01 00:47:28;;;;;;;2.17;1.90;;;;;;;;;;7382649;19;20163;-78
2022/06/01 00:50:13;;;;;;;2.17;1.97;;;;;;;;;;7387189;19;20625;-81
2022/06/01 00:52:45;;;;;;;2.57;2.17;;;;;;;;;;7384332;19;20550;-77
2022/06/01 00:55:16;;;;;;;2.23;2.03;;;;;;;;;;7387113;19;20179;-83
2022/06/01 00:57:43;;;;;;;4.13;2.00;;;;;;;;;;7382148;19;20125;-79
2022/06/01 01:00:11;;;;;;;3.53;2.20;;;;;;;;;;7385529;19;20148;-79
2022/06/01 01:02:38;;;;;;;3.00;1.93;;;;;;;;;;7387444;19;20152;-79
2022/06/01 01:05:05;;;;;;;2.07;1.87;;;;;;;;;;7379306;19;20133;-83
2022/06/01 01:10:00;;;;;;;2.53;1.90;;;;;;;;;;7388768;19;20154;-79
2022/06/01 01:12:25;;;;;;;5.43;1.97;;;;;;;;;;7391290;19;20508;-80
2022/06/01 01:14:52;;;;;;;2.13;1.97;;;;;;;;;;7391330;19;20177;-79
2022/06/01 01:17:20;;;;;;;2.87;1.87;;;;;;;;;;7384342;19;20774;-79
2022/06/01 01:19:49;;;;;;;2.70;2.50;;;;;;;;;;7387996;19;20689;-80
2022/06/01 01:22:31;;;;;;;2.00;1.80;;;;;;;;;;7390627;19;20153;-79
2022/06/01 01:25:17;;;;;;;3.93;2.20;;;;;;;;;;7386634;19;20156;-81
2022/06/01 01:27:45;;;;;;;2.90;2.30;;;;;;;;;;7392143;19;20125;-80
2022/06/01 01:30:26;;;;;;;4.03;2.63;;;;;;;;;;7394364;19;20153;-80
2022/06/01 01:32:53;;;;;;;3.03;2.43;;;;;;;;;;7391344;19;20141;-83
2022/06/01 01:35:19;;;;;;;2.47;2.27;;;;;;;;;;7385137;19;20149;-80
2022/06/01 01:37:46;;;;;;;3.53;2.20;;;;;;;;;;7390616;19;20271;-80
2022/06/01 01:40:12;;;;;;;2.87;2.47;;;;;;;;;;7385903;19;20133;-81
2022/06/01 01:42:39;;;;;;;3.57;2.30;;;;;;;;;;7384394;19;20208;-79
2022/06/01 01:45:11;;;;;;;2.60;2.40;;;;;;;;;;7380063;19;20172;-82
2022/06/01 01:47:38;;;;;;;2.93;2.50;;;;;;;;;;7385012;19;20159;-81
2022/06/01 01:50:07;;;;;;;2.57;2.37;;;;;;;;;;7387007;19;20132;-80
2022/06/01 01:52:33;;;;;;;3.53;2.60;;;;;;;;;;7384509;19;20594;-81
2022/06/01 01:55:06;;;;;;;2.73;2.53;;;;;;;;;;7381002;19;20151;-82
2022/06/01 01:57:32;;;;;;;3.47;2.67;;;;;;;;;;7381366;19;20157;-81
2022/06/01 02:00:06;;;;;;;2.70;2.17;;;;;;;;;;7379540;19;20174;-79
2022/06/01 02:02:45;;;;;;;2.63;2.43;;;;;;;;;;7381664;19;20148;-81
2022/06/01 02:08:11;;;;;;;4.23;2.57;;;;;;;;;;7380749;19;20818;-80
2022/06/01 02:13:22;;;;;;;3.30;2.37;;;;;;;;;;7380180;19;20128;-81
2022/06/01 02:15:50;;;;;;;5.17;2.70;;;;;;;;;;7377404;19;22611;-81
2022/06/01 02:18:19;;;;;;;2.50;2.30;;;;;;;;;;7383902;19;20559;-80
2022/06/01 02:20:48;;;;;;;2.50;2.30;;;;;;;;;;7382634;19;20131;-81
2022/06/01 02:23:15;;;;;;;2.87;2.17;;;;;;;;;;7384309;19;20168;-80
2022/06/01 02:25:42;;;;;;;2.83;2.40;;;;;;;;;;7386687;19;20177;-82
2022/06/01 02:28:09;;;;;;;3.63;2.70;;;;;;;;;;7376459;19;20595;-80
2022/06/01 02:30:38;;;;;;;2.30;2.10;;;;;;;;;;7379946;19;20156;-81
2022/06/01 02:33:05;;;;;;;4.03;2.30;;;;;;;;;;7376792;19;20129;-80
2022/06/01 02:35:34;;;;;;;3.47;2.70;;;;;;;;;;7388414;19;20485;-80
2022/06/01 02:38:01;;;;;;;2.73;2.30;;;;;;;;;;7390294;19;20141;-81
2022/06/01 02:40:29;;;;;;;2.90;2.10;;;;;;;;;;7381179;19;20147;-82
2022/06/01 02:42:55;;;;;;;2.73;2.53;;;;;;;;;;7382689;19;20125;-82
2022/06/01 02:45:23;;;;;;;2.70;2.20;;;;;;;;;;7377943;19;20152;-82
2022/06/01 02:47:50;;;;;;;2.57;2.20;;;;;;;;;;7379791;19;20504;-81
2022/06/01 02:50:18;;;;;;;4.87;2.40;;;;;;;;;;7378198;19;20612;-80
2022/06/01 02:52:44;;;;;;;2.53;2.33;;;;;;;;;;7376989;19;20399;-81
2022/06/01 02:55:11;;;;;;;2.53;2.33;;;;;;;;;;7372961;19;20155;-81
2022/06/01 02:57:37;;;;;;;2.50;2.30;;;;;;;;;;7378312;19;20153;-81
2022/06/01 03:00:17;;;;;;;4.17;2.90;;;;;;;;;;7370470;19;20163;-79
2022/06/01 03:02:43;;;;;;;2.27;2.10;;;;;;;;;;7381551;19;20129;-79
2022/06/01 03:05:09;;;;;;;3.30;2.53;;;;;;;;;;7377238;19;20196;-80
2022/06/01 03:07:35;;;;;;;2.77;2.57;;;;;;;;;;7374512;19;20124;-80
2022/06/01 03:10:01;;;;;;;2.47;2.10;;;;;;;;;;7383621;19;20810;-78
2022/06/01 03:12:27;;;;;;;2.50;2.30;;;;;;;;;;7382068;19;20137;-79
2022/06/01 03:14:53;;;;;;;4.37;2.50;;;;;;;;;;7377295;19;20143;-82
2022/06/01 03:17:19;;;;;;;2.47;2.27;;;;;;;;;;7379796;19;20153;-79
2022/06/01 03:19:45;;;;;;;2.50;2.30;;;;;;;;;;7376898;19;20140;-79
2022/06/01 03:22:11;;;;;;;2.50;2.30;;;;;;;;;;7373416;19;20626;-81
2022/06/01 03:24:37;;;;;;;2.50;2.30;;;;;;;;;;7382805;19;20186;-81
2022/06/01 03:27:03;;;;;;;2.53;2.33;;;;;;;;;;7383659;19;20210;-79
2022/06/01 03:29:29;;;;;;;3.23;2.23;;;;;;;;;;7385728;19;20638;-80
2022/06/01 03:31:56;;;;;;;2.87;2.40;;;;;;;;;;7380697;19;20139;-83
2022/06/01 03:34:22;;;;;;;2.70;2.50;;;;;;;;;;7377289;19;20642;-80
2022/06/01 03:36:48;;;;;;;4.80;2.40;;;;;;;;;;7383223;19;20141;-79
2022/06/01 03:39:14;;;;;;;2.30;2.10;;;;;;;;;;7376064;19;20153;-81
2022/06/01 03:41:40;;;;;;;2.30;2.10;;;;;;;;;;7387194;19;20140;-79
2022/06/01 03:46:52;;;;;;;3.57;2.30;;;;;;;;;;7406896;19;20154;-80
2022/06/01 03:49:18;;;;;;;2.37;2.17;;;;;;;;;;7405818;19;20145;-80
2022/06/01 03:51:44;;;;;;;3.27;2.67;;;;;;;;;;7409033;19;20145;-81
2022/06/01 03:54:10;;;;;;;2.60;2.40;;;;;;;;;;7415311;19;20174;-83
2022/06/01 03:56:36;;;;;;;2.70;2.50;;;;;;;;;;7413289;19;20142;-79
2022/06/01 03:59:02;;;;;;;4.57;2.47;;;;;;;;;;7378461;19;20614;-79
2022/06/01 04:01:28;;;;;;;2.90;2.53;;;;;;;;;;7373433;19;20273;-80
2022/06/01 04:03:54;;;;;;;2.03;1.93;;;;;;;;;;7369562;19;20140;-79
2022/06/01 04:06:20;;;;;;;3.13;2.50;;;;;;;;;;7371637;19;20481;-80
2022/06/01 04:08:46;;;;;;;2.93;2.60;;;;;;;;;;7368027;19;20133;-79
2022/06/01 04:11:12;;;;;;;2.77;2.30;;;;;;;;;;7372286;19;20132;-80
2022/06/01 04:13:38;;;;;;;3.60;2.30;;;;;;;;;;7369793;19;20129;-79
2022/06/01 04:16:04;;;;;;;2.47;2.27;;;;;;;;;;7374182;19;20251;-79
2022/06/01 04:18:30;;;;;;;3.20;2.37;;;;;;;;;;7383553;19;20129;-79
2022/06/01 04:20:56;;;;;;;2.87;2.67;;;;;;;;;;7380474;19;20512;-80
2022/06/01 04:23:22;;;;;;;2.53;2.33;;;;;;;;;;7377711;19;20133;-79
2022/06/01 04:25:48;;;;;;;3.03;2.57;;;;;;;;;;7363835;19;20184;-80
2022/06/01 04:28:15;;;;;;;5.60;2.83;;;;;;;;;;7380323;19;20205;-79
2022/06/01 04:30:41;;;;;;;3.73;2.70;;;;;;;;;;7385276;19;20627;-80
2022/06/01 04:33:07;;;;;;;3.33;2.53;;;;;;;;;;7380660;19;20345;-79
2022/06/01 04:35:33;;;;;;;6.40;2.60;;;;;;;;;;7382682;19;20276;-79
2022/06/01 04:38:15;;;;;;;2.50;2.30;;;;;;;;;;7389985;19;20149;-79
2022/06/01 04:40:45;;;;;;;4.37;2.83;;;;;;;;;;7386949;19;20125;-79
2022/06/01 04:43:12;;;;;;;3.40;2.77;;;;;;;;;;7394101;19;20140;-80
2022/06/01 04:45:38;;;;;;;2.60;2.40;;;;;;;;;;7381310;19;20536;-79
2022/06/01 04:48:04;;;;;;;4.17;2.67;;;;;;;;;;7390311;19;20138;-79
2022/06/01 04:50:30;;;;;;;3.70;2.60;;;;;;;;;;7390730;19;20137;-80
2022/06/01 04:52:56;;;;;;;6.90;2.90;;;;;;;;;;7394740;19;20136;-78
2022/06/01 04:55:22;;;;;;;2.77;2.57;;;;;;;;;;7386811;19;20172;-78
2022/06/01 04:57:49;;;;;;;3.63;3.00;;;;;;;;;;7387245;19;20581;-78
2022/06/01 05:00:15;;;;;;;3.03;2.70;;;;;;;;;;7379951;19;20132;-79
2022/06/01 05:02:42;;;;;;;3.03;2.57;;;;;;;;;;7395719;19;20136;-78
2022/06/01 05:05:08;;;;;;;2.70;2.33;;;;;;;;;;7399172;19;20190;-78
2022/06/01 05:07:34;;;;;;;5.80;2.37;;;;;;;;;;7399266;19;20169;-79
2022/06/01 05:10:00;;;;;;;3.10;2.80;;;;;;;;;;7390912;19;20165;-83
2022/06/01 05:12:26;;;;;;;2.57;2.30;;;;;;;;;;7386441;19;20189;-79
2022/06/01 05:14:52;;;;;;;3.00;2.67;;;;;;;;;;7389260;19;20125;-79
2022/06/01 05:17:19;;;;;;;2.87;2.50;;;;;;;;;;7385482;19;20133;-78
2022/06/01 05:19:45;;;;;;;60.57;8.17;;;;;;;;;;7381895;19;20152;-79
2022/06/01 05:22:11;;;;;;;7.00;2.77;;;;;;;;;;7388799;19;20141;-79
2022/06/01 05:24:37;;;;;;;4.03;2.80;;;;;;;;;;7388026;19;20125;-79
2022/06/01 05:27:03;;;;;;;4.77;3.00;;;;;;;;;;7376646;19;20160;-79
2022/06/01 05:29:29;;;;;;;3.87;2.80;;;;;;;;;;7384702;19;20132;-78
2022/06/01 05:31:55;;;;;;;4.13;2.30;;;;;;;;;;7387324;19;20155;-78
2022/06/01 05:34:21;;;;;;;2.67;2.30;;;;;;;;;;7385320;19;20152;-81
2022/06/01 05:36:47;;;;;;;2.93;2.40;;;;;;;;;;7386523;19;20180;-81
2022/06/01 05:39:13;;;;;;;3.93;2.90;;;;;;;;;;7390329;19;20152;-79
2022/06/01 05:41:40;;;;;;;4.23;2.70;;;;;;;;;;7393336;19;20128;-79
2022/06/01 05:44:06;;;;;;;5.33;3.23;;;;;;;;;;7389494;19;20189;-80
2022/06/01 05:46:35;;;;;;;19.60;3.10;;;;;;;;;;7384508;19;20149;-79
2022/06/01 05:49:01;;;;;;;3.70;3.30;;;;;;;;;;7385086;19;20523;-80
2022/06/01 05:51:27;;;;;;;5.03;3.03;;;;;;;;;;7387051;19;20136;-79
2022/06/01 05:53:53;;;;;;;3.60;2.50;;;;;;;;;;7389009;19;20138;-79
2022/06/01 05:56:19;;;;;;;3.10;2.33;;;;;;;;;;7375288;19;20169;-82
2022/06/01 05:58:47;;;;;;;2.20;2.10;;;;;;;;;;7382933;19;20145;-80
2022/06/01 06:01:13;;;;;;;2.40;2.20;;;;;;;;;;7382546;19;20178;-78
2022/06/01 06:03:39;;;;;;;2.33;2.13;;;;;;;;;;7377760;19;20161;-80
2022/06/01 06:06:18;;;;;;;2.33;2.13;;;;;;;;;;7384465;19;20184;-83
2022/06/01 06:08:47;;;;;;;3.97;2.50;;;;;;;;;;7387236;19;20129;-79
2022/06/01 06:11:13;;;;;;;2.70;2.50;;;;;;;;;;7389131;19;20140;-78
2022/06/01 06:13:39;;;;;;;3.83;2.37;;;;;;;;;;7385788;19;20523;-82
2022/06/01 06:16:06;;;;;;;3.83;2.20;;;;;;;;;;7380056;19;20168;-79
2022/06/01 06:18:32;;;;;;;3.40;2.73;;;;;;;;;;7384704;19;20169;-78
2022/06/01 06:20:58;;;;;;;2.30;2.10;;;;;;;;;;7386252;19;20125;-78
2022/06/01 06:23:24;;;;;;;2.77;2.40;;;;;;;;;;7383123;19;20149;-78
2022/06/01 06:25:50;;;;;;;2.67;2.47;;;;;;;;;;7381286;19;20195;-80
2022/06/01 06:28:16;;;;;;;2.60;2.40;;;;;;;;;;7387659;19;20141;-79
2022/06/01 06:30:42;;;;;;;2.53;2.30;;;;;;;;;;7381500;19;20125;-78
2022/06/01 06:33:08;;;;;;;3.17;2.70;;;;;;;;;;7385628;19;20657;-79
2022/06/01 06:35:35;;;;;;;5.27;2.40;;;;;;;;;;7388023;19;20608;-79
2022/06/01 06:38:01;;;;;;;6.13;2.63;;;;;;;;;;7382853;19;20148;-79
2022/06/01 06:40:27;;;;;;;3.10;2.20;;;;;;;;;;7381321;19;20162;-80
2022/06/01 06:42:53;;;;;;;3.30;2.00;;;;;;;;;;7380825;19;20128;-79
2022/06/01 06:45:22;;;;;;;3.63;2.50;;;;;;;;;;7383490;19;20248;-80
2022/06/01 06:47:49;;;;;;;2.50;2.03;;;;;;;;;;7385777;19;20693;-79
2022/06/01 06:50:16;;;;;;;1.83;1.73;;;;;;;;;;7367648;19;20121;-83
2022/06/01 06:52:42;;;;;;;182.23;10.33;;;;;;;;;;7381648;19;20136;-79
2022/06/01 06:55:08;;;;;;;3.90;2.15;;;;;;;;;;7387601;19;20176;-81
2022/06/01 06:57:35;;;;;;;2.03;1.90;;;;;;;;;;7387067;19;20147;-81
2022/06/01 07:00:01;;;;;;;2.15;1.95;;;;;;;;;;7386775;19;20148;-81
2022/06/01 07:02:27;;;;;;;213.43;15.88;;;;;;;;;;7389903;19;20125;-81
2022/06/01 07:04:53;;;;;;;6.95;2.22;;;;;;;;;;7390085;19;20132;-80
2022/06/01 07:07:19;;;;;;;5.68;2.40;;;;;;;;;;7383420;19;20626;-80
2022/06/01 07:09:45;;;;;;;3.30;1.85;;;;;;;;;;7384130;19;20149;-79
2022/06/01 07:12:11;;;;;;;13.82;2.90;;;;;;;;;;7387951;19;20140;-79
2022/06/01 07:14:37;;;;;;;2.60;1.85;;;;;;;;;;7385918;19;20144;-79
2022/06/01 07:17:04;;;;;;;1.38;1.27;;;;;;;;;;7385658;19;20188;-80
2022/06/01 07:19:30;;;;;;;1.98;1.80;;;;;;;;;;7381635;19;20155;-79
2022/06/01 07:21:56;;;;;;;3.65;1.90;;;;;;;;;;7383258;19;20178;-79
2022/06/01 07:24:22;;;;;;;2.28;2.00;;;;;;;;;;7385549;19;20129;-79
2022/06/01 07:26:49;;;;;;;2.70;1.90;;;;;;;;;;7378162;19;20217;-79
2022/06/01 07:29:16;;;;;;;3.25;1.75;;;;;;;;;;7383320;19;20148;-79
2022/06/01 07:31:43;;;;;;;2.42;1.70;;;;;;;;;;7384206;19;20136;-79
2022/06/01 07:34:09;;;;;;;2.47;2.20;;;;;;;;;;7378799;19;20164;-79
2022/06/01 07:36:35;;;;;;;2.22;2.03;;;;;;;;;;7380086;19;20153;-79
2022/06/01 07:43:05;;;;;;;2.83;1.80;;;;;;;;;;7405718;19;20160;-80
2022/06/01 07:44:41;;;;;;;3.03;1.80;;;;;;;;;;7381923;19;20152;-78
2022/06/01 07:47:07;;;;;;;2.22;2.00;;;;;;;;;;7382960;19;20155;-81
2022/06/01 07:49:33;;;;;;;1.67;1.58;;;;;;;;;;7386062;19;20137;-79
2022/06/01 07:51:59;;;;;;;2.15;1.67;;;;;;;;;;7382535;19;20217;-79
2022/06/01 07:54:25;;;;;;;5.63;1.90;;;;;;;;;;7383623;19;20147;-79
2022/06/01 07:56:51;;;;;;;2.00;1.80;;;;;;;;;;7380998;19;20857;-77
2022/06/01 07:59:17;;;;;;;3.80;1.65;;;;;;;;;;7381378;19;20212;-80
2022/06/01 08:01:43;;;;;;;3.92;2.10;;;;;;;;;;7384593;19;20536;-77
2022/06/01 08:04:10;;;;;;;1.77;1.67;;;;;;;;;;7387478;19;20145;-79
2022/06/01 08:06:36;;;;;;;2.08;1.90;;;;;;;;;;7387694;19;20173;-79
2022/06/01 08:09:03;;;;;;;4.15;2.00;;;;;;;;;;7390610;19;20159;-80
2022/06/01 08:14:14;;;;;;;2.20;2.00;;;;;;;;;;7391939;19;20144;-79
2022/06/01 08:16:41;;;;;;;3.55;2.00;;;;;;;;;;7390409;19;20532;-77
2022/06/01 08:19:08;;;;;;;1.90;1.80;;;;;;;;;;7389325;19;20152;-77
2022/06/01 08:21:34;;;;;;;2.75;1.90;;;;;;;;;;7386483;19;20125;-77
2022/06/01 08:24:00;;;;;;;3.58;2.00;;;;;;;;;;7389112;19;20561;-76
2022/06/01 08:26:26;;;;;;;3.67;1.83;;;;;;;;;;7384988;19;20528;-77
2022/06/01 08:28:52;;;;;;;3.50;1.77;;;;;;;;;;7388967;19;20129;-78
2022/06/01 08:31:18;;;;;;;1.90;1.80;;;;;;;;;;7389015;19;20702;-77
2022/06/01 08:33:44;;;;;;;4.10;2.10;;;;;;;;;;7390546;19;20465;-77
2022/06/01 08:36:10;;;;;;;2.63;1.90;;;;;;;;;;7385415;19;20179;-77
2022/06/01 08:38:36;;;;;;;1.70;1.60;;;;;;;;;;7375260;19;20161;-79
2022/06/01 08:41:04;;;;;;;2.15;1.70;;;;;;;;;;7389259;19;20132;-77
2022/06/01 08:43:42;;;;;;;2.25;1.98;;;;;;;;;;7386750;19;20160;-78
2022/06/01 08:46:09;;;;;;;2.20;1.95;;;;;;;;;;7385493;19;20240;-78
2022/06/01 08:48:47;;;;;;;2.53;1.80;;;;;;;;;;7386072;19;20261;-77
2022/06/01 08:51:14;;;;;;;2.20;2.00;;;;;;;;;;7385407;19;20180;-79
2022/06/01 08:53:41;;;;;;;6.85;1.90;;;;;;;;;;7383483;19;20133;-78
2022/06/01 08:56:15;;;;;;;2.00;1.90;;;;;;;;;;7381724;19;20157;-78
2022/06/01 08:58:43;;;;;;;2.65;1.90;;;;;;;;;;7387253;19;20165;-78
2022/06/01 09:01:19;;;;;;;2.28;1.77;;;;;;;;;;7388888;19;20159;-78
2022/06/01 09:03:52;;;;;;;2.72;2.08;;;;;;;;;;7381614;19;20140;-78
2022/06/01 09:06:29;;;;;;;8.13;2.05;;;;;;;;;;7382610;19;20716;-77
2022/06/01 09:08:58;;;;;;;3.53;1.80;;;;;;;;;;7390070;19;20159;-78
2022/06/01 09:11:28;;;;;;;2.97;2.13;;;;;;;;;;7392976;19;20525;-78
2022/06/01 09:13:54;;;;;;;3.17;2.08;;;;;;;;;;7384431;19;20152;-78
2022/06/01 09:16:22;;;;;;;2.50;1.83;;;;;;;;;;7379193;19;20182;-78
2022/06/01 09:18:50;;;;;;;3.38;2.30;;;;;;;;;;7385348;19;20618;-78
2022/06/01 09:24:10;;;;;;;2.45;2.20;;;;;;;;;;7386750;19;20124;-78
2022/06/01 09:26:48;;;;;;;2.30;2.10;;;;;;;;;;7391159;19;20153;-77
2022/06/01 09:29:19;;;;;;;2.20;2.00;;;;;;;;;;7391597;19;20125;-77
2022/06/01 09:31:47;;;;;;;4.20;1.90;;;;;;;;;;7388812;19;20125;-78
2022/06/01 09:34:22;;;;;;;2.13;1.92;;;;;;;;;;7384814;19;20164;-77
2022/06/01 09:36:49;;;;;;;2.97;2.05;;;;;;;;;;7392309;19;20203;-79
2022/06/01 09:39:18;;;;;;;2.20;1.92;;;;;;;;;;7394197;19;20153;-78
2022/06/01 09:41:44;;;;;;;2.53;1.92;;;;;;;;;;7385116;19;20719;-79
2022/06/01 09:44:12;;;;;;;3.80;2.15;;;;;;;;;;7394045;19;20129;-79
2022/06/01 09:46:40;;;;;;;2.35;2.00;;;;;;;;;;7386441;19;20180;-79
2022/06/01 09:49:27;;;;;;;2.42;1.95;;;;;;;;;;7393058;19;20155;-79
2022/06/01 09:51:55;;;;;;;3.13;1.77;;;;;;;;;;7397864;19;20136;-79
2022/06/01 09:54:21;;;;;;;3.10;2.08;;;;;;;;;;7394970;19;20176;-79
2022/06/01 09:56:48;;;;;;;2.42;1.80;;;;;;;;;;7385000;19;20176;-78
2022/06/01 10:07:43;;;;;;;3.35;2.28;;;;;;;;;;7386352;19;20136;-78
2022/06/01 10:10:18;;;;;;;3.00;1.77;;;;;;;;;;7386270;19;20153;-78
2022/06/01 10:12:47;;;;;;;3.45;2.00;;;;;;;;;;7388490;19;20602;-78
2022/06/01 10:15:25;;;;;;;3.83;1.90;;;;;;;;;;7385533;19;20145;-78
2022/06/01 10:17:54;;;;;;;4.82;2.15;;;;;;;;;;7378441;19;20117;-78
2022/06/01 10:20:35;;;;;;;4.43;2.33;;;;;;;;;;7378174;19;20498;-78
2022/06/01 10:23:07;;;;;;;5.15;1.98;;;;;;;;;;7380565;19;20225;-79
2022/06/01 10:25:38;;;;;;;2.40;2.17;;;;;;;;;;7367847;19;20642;-78
2022/06/01 10:28:06;;;;;;;2.42;2.17;;;;;;;;;;7383431;19;20196;-78
2022/06/01 10:30:44;;;;;;;3.03;2.08;;;;;;;;;;7377026;19;20690;-79
2022/06/01 10:33:15;;;;;;;3.28;1.98;;;;;;;;;;7388170;19;20687;-79
2022/06/01 10:35:40;;;;;;;3.72;2.40;;;;;;;;;;7415211;19;20144;-78
2022/06/01 10:38:25;;;;;;;2.15;1.90;;;;;;;;;;7420878;19;20137;-78
2022/06/01 10:41:21;;;;;;;2.20;1.90;;;;;;;;;;7408715;19;20148;-79
2022/06/01 10:43:59;;;;;;;3.72;2.13;;;;;;;;;;7419621;19;20145;-79
2022/06/01 10:46:47;;;;;;;2.38;1.90;;;;;;;;;;7397965;19;20244;-80
2022/06/01 10:49:23;;;;;;;4.00;2.22;;;;;;;;;;7386642;19;20482;-79
2022/06/01 10:52:09;;;;;;;3.45;2.40;;;;;;;;;;7375733;19;20141;-78
2022/06/01 10:54:39;;;;;;;3.22;1.95;;;;;;;;;;7377017;19;20148;-79
2022/06/01 10:57:08;;;;;;;2.17;1.83;;;;;;;;;;7382218;19;20176;-79
2022/06/01 10:59:34;;;;;;;3.20;2.42;;;;;;;;;;7384984;19;20157;-80
2022/06/01 11:02:27;;;;;;;2.45;2.20;;;;;;;;;;7381629;19;20140;-79
2022/06/01 11:04:57;;;;;;;2.97;2.28;;;;;;;;;;7386462;19;20153;-80
2022/06/01 11:07:26;;;;;;;3.78;2.10;;;;;;;;;;7389232;19;20165;-79
2022/06/01 11:10:10;;;;;;;2.25;2.05;;;;;;;;;;7408512;19;20145;-80
2022/06/01 11:12:45;;;;;;;4.47;2.00;;;;;;;;;;7407434;19;20738;-79
2022/06/01 11:15:11;;;;;;;3.92;2.22;;;;;;;;;;7377237;19;20696;-80
2022/06/01 11:17:43;;;;;;;2.33;2.10;;;;;;;;;;7375131;19;20152;-79
2022/06/01 11:20:18;;;;;;;3.03;2.25;;;;;;;;;;7375851;19;20220;-79
2022/06/01 11:22:44;;;;;;;3.53;2.60;;;;;;;;;;7378514;19;20244;-79
2022/06/01 11:25:23;;;;;;;2.75;2.17;;;;;;;;;;7382493;19;20156;-79
2022/06/01 11:27:49;;;;;;;2.90;2.45;;;;;;;;;;7382218;19;20133;-79
2022/06/01 11:30:22;;;;;;;3.28;2.78;;;;;;;;;;7384721;19;20167;-79
2022/06/01 11:32:53;;;;;;;3.90;2.22;;;;;;;;;;7380514;19;20160;-79
2022/06/01 11:35:21;;;;;;;3.00;2.70;;;;;;;;;;7382292;19;20168;-78
2022/06/01 11:37:54;;;;;;;2.63;2.25;;;;;;;;;;7385677;19;20426;-78
2022/06/01 11:40:38;;;;;;;2.47;1.88;;;;;;;;;;7392171;19;21010;-78
2022/06/01 11:43:23;;;;;;;2.88;2.00;;;;;;;;;;7392780;19;20161;-78
2022/06/01 11:45:53;;;;;;;4.03;2.30;;;;;;;;;;7400074;19;20165;-78
2022/06/01 11:48:25;;;;;;;3.60;2.17;;;;;;;;;;7402239;19;20125;-78
2022/06/01 11:50:54;;;;;;;4.70;3.75;;;;;;;;;;7397371;19;20148;-80
2022/06/01 11:53:28;;;;;;;3.03;2.30;;;;;;;;;;7388661;19;20141;-78
2022/06/01 11:56:06;;;;;;;3.65;2.40;;;;;;;;;;7391369;19;20637;-79
2022/06/01 11:58:35;;;;;;;2.92;2.30;;;;;;;;;;7389620;19;20188;-79
2022/06/01 12:01:13;;;;;;;3.35;2.28;;;;;;;;;;7402482;19;20152;-79
2022/06/01 12:03:41;;;;;;;2.42;2.22;;;;;;;;;;7403260;19;20156;-79
2022/06/01 12:06:07;;;;;;;5.28;2.83;;;;;;;;;;7400332;19;20168;-79
2022/06/01 12:08:40;;;;;;;3.25;2.22;;;;;;;;;;7398904;19;20157;-80
2022/06/01 12:11:07;;;;;;;3.63;2.83;;;;;;;;;;7392729;19;20162;-79
2022/06/01 12:13:36;;;;;;;4.43;3.08;;;;;;;;;;7391148;19;20619;-78
2022/06/01 12:16:05;;;;;;;3.20;2.90;;;;;;;;;;7389727;19;20523;-79
2022/06/01 12:18:32;;;;;;;4.03;2.60;;;;;;;;;;7387342;19;20148;-81
2022/06/01 12:21:17;;;;;;;3.53;2.85;;;;;;;;;;7393885;19;20138;-78
2022/06/01 12:29:34;;;;;;;4.32;3.00;;;;;;;;;;7395320;19;20136;-79
2022/06/01 12:32:00;;;;;;;5.18;3.15;;;;;;;;;;7391357;19;20527;-80
2022/06/01 12:34:52;;;;;;;4.55;3.05;;;;;;;;;;7393994;19;20133;-80
2022/06/01 12:37:21;;;;;;;5.03;3.33;;;;;;;;;;7391240;19;20176;-80
2022/06/01 12:39:51;;;;;;;4.55;3.40;;;;;;;;;;7392322;19;20596;-80
2022/06/01 12:42:23;;;;;;;6.00;3.97;;;;;;;;;;7390023;19;20157;-80
2022/06/01 12:44:51;;;;;;;3.63;3.25;;;;;;;;;;7387564;19;20532;-79
2022/06/01 12:47:31;;;;;;;2.78;2.58;;;;;;;;;;7391151;19;20610;-79
2022/06/01 12:50:05;;;;;;;5.45;3.85;;;;;;;;;;7386507;19;20177;-79
2022/06/01 12:52:31;;;;;;;4.15;2.90;;;;;;;;;;7392487;19;20200;-80
2022/06/01 12:55:00;;;;;;;3.75;2.88;;;;;;;;;;7386520;19;20602;-79
2022/06/01 12:57:28;;;;;;;6.93;3.35;;;;;;;;;;7388435;19;20137;-80
2022/06/01 12:59:59;;;;;;;3.83;2.80;;;;;;;;;;7387155;19;20607;-79
2022/06/01 13:02:25;;;;;;;6.47;2.90;;;;;;;;;;7390396;19;20137;-79
2022/06/01 13:04:55;;;;;;;4.10;2.92;;;;;;;;;;7390166;19;20149;-81
2022/06/01 13:07:23;;;;;;;5.70;3.50;;;;;;;;;;7385129;19;20184;-79
